createdAt,value
2022-11-13T00:01:17.587Z,3.67
2022-11-13T00:03:45.517Z,3.93
2022-11-13T00:06:14.550Z,3.07
2022-11-13T00:08:43.001Z,4.43
2022-11-13T00:11:14.770Z,3.90
2022-11-13T00:13:43.786Z,3.07
2022-11-13T00:16:13.550Z,2.80
2022-11-13T00:18:41.381Z,3.07
2022-11-13T00:21:10.614Z,2.57
2022-11-13T00:23:38.891Z,2.40
2022-11-13T00:26:07.881Z,3.43
2022-11-13T00:28:37.138Z,3.83
2022-11-13T00:31:06.709Z,3.97
2022-11-13T00:36:26.238Z,2.97
2022-11-13T00:38:55.027Z,3.67
2022-11-13T00:41:22.918Z,2.07
2022-11-13T00:43:52.489Z,2.20
2022-11-13T00:46:20.987Z,2.00
2022-11-13T00:48:48.764Z,1.63
2022-11-13T00:51:16.611Z,2.63
2022-11-13T00:53:44.374Z,3.73
2022-11-13T00:56:12.415Z,3.17
2022-11-13T00:58:40.223Z,2.70
2022-11-13T01:01:11.916Z,2.97
2022-11-13T01:03:40.053Z,3.47
2022-11-13T01:06:12.868Z,3.70
2022-11-13T01:08:41.228Z,6.33
2022-11-13T01:11:10.723Z,5.27
2022-11-13T01:13:38.850Z,3.57
2022-11-13T01:16:10.251Z,5.87
2022-11-13T01:18:38.496Z,5.40
2022-11-13T01:21:07.875Z,4.90
2022-11-13T01:23:36.302Z,5.30
2022-11-13T01:26:09.541Z,3.90
2022-11-13T01:28:37.473Z,3.43
2022-11-13T01:31:07.201Z,3.50
2022-11-13T01:33:36.313Z,5.47
2022-11-13T01:36:06.503Z,2.77
2022-11-13T01:38:36.865Z,2.90
2022-11-13T01:41:05.724Z,3.20
2022-11-13T01:43:35.138Z,3.67
2022-11-13T01:46:21.064Z,4.00
2022-11-13T01:48:53.734Z,4.83
2022-11-13T01:51:28.036Z,6.23
2022-11-13T01:53:56.767Z,7.73
2022-11-13T01:56:25.006Z,4.70
2022-11-13T01:58:55.761Z,3.60
2022-11-13T02:01:23.747Z,3.07
2022-11-13T02:03:52.931Z,3.83
2022-11-13T02:06:21.451Z,5.13
2022-11-13T02:08:51.711Z,3.20
2022-11-13T02:11:20.962Z,3.70
2022-11-13T02:13:49.065Z,3.93
2022-11-13T02:16:18.636Z,3.00
2022-11-13T02:18:46.715Z,3.00
2022-11-13T02:21:26.613Z,3.33
2022-11-13T02:24:01.172Z,2.67
2022-11-13T02:26:32.436Z,3.57
2022-11-13T02:29:00.205Z,2.97
2022-11-13T02:31:28.010Z,8.17
2022-11-13T02:33:55.978Z,3.00
2022-11-13T02:36:26.335Z,3.77
2022-11-13T02:38:56.018Z,3.47
2022-11-13T02:41:23.746Z,1.80
2022-11-13T02:43:52.909Z,2.10
2022-11-13T02:46:20.705Z,3.43
2022-11-13T02:48:48.452Z,5.13
2022-11-13T02:51:16.240Z,1.80
2022-11-13T02:53:44.063Z,2.60
2022-11-13T02:56:11.833Z,2.60
2022-11-13T02:58:39.610Z,3.07
2022-11-13T03:01:08.741Z,2.37
2022-11-13T03:06:24.624Z,2.47
2022-11-13T03:08:52.435Z,2.40
2022-11-13T03:11:20.179Z,2.53
2022-11-13T03:13:47.963Z,2.13
2022-11-13T03:16:17.941Z,2.53
2022-11-13T03:18:45.782Z,2.33
2022-11-13T03:21:15.249Z,2.30
2022-11-13T03:23:44.914Z,2.10
2022-11-13T03:26:18.514Z,2.57
2022-11-13T03:28:46.561Z,3.03
2022-11-13T03:31:14.537Z,2.33
2022-11-13T03:33:43.911Z,1.57
2022-11-13T03:36:11.676Z,2.30
2022-11-13T03:38:39.463Z,2.63
2022-11-13T03:41:07.248Z,2.00
2022-11-13T03:43:34.998Z,1.80
2022-11-13T03:46:02.811Z,4.83
2022-11-13T03:48:30.887Z,3.57
2022-11-13T03:51:00.201Z,1.83
2022-11-13T03:53:27.964Z,1.90
2022-11-13T03:55:55.723Z,2.33
2022-11-13T03:58:23.521Z,1.87
2022-11-13T04:00:52.123Z,1.90
2022-11-13T04:03:20.044Z,1.37
2022-11-13T04:05:49.354Z,3.70
2022-11-13T04:08:19.175Z,2.47
2022-11-13T04:10:47.377Z,3.80
2022-11-13T04:13:15.187Z,2.70
2022-11-13T04:15:43.073Z,1.63
2022-11-13T04:18:11.652Z,2.70
2022-11-13T04:20:39.442Z,1.73
2022-11-13T04:23:12.477Z,1.57
2022-11-13T04:25:41.625Z,1.80
2022-11-13T04:28:10.496Z,1.57
2022-11-13T04:30:38.456Z,1.30
2022-11-13T04:33:06.930Z,2.40
2022-11-13T04:35:35.442Z,2.10
2022-11-13T04:38:03.195Z,4.37
2022-11-13T04:40:31.009Z,1.43
2022-11-13T04:42:59.163Z,1.83
2022-11-13T04:45:27.585Z,1.80
2022-11-13T04:47:55.634Z,1.50
2022-11-13T04:50:23.563Z,3.83
2022-11-13T04:52:51.395Z,1.97
2022-11-13T04:55:19.381Z,2.77
2022-11-13T04:57:47.269Z,1.60
2022-11-13T05:00:17.663Z,1.50
2022-11-13T05:02:45.459Z,2.67
2022-11-13T05:05:13.189Z,1.37
2022-11-13T05:07:42.438Z,1.50
2022-11-13T05:10:10.541Z,1.50
2022-11-13T05:12:38.309Z,2.47
2022-11-13T05:15:07.602Z,2.47
2022-11-13T05:17:36.686Z,2.40
2022-11-13T05:20:05.375Z,3.10
2022-11-13T05:22:33.134Z,1.50
2022-11-13T05:25:00.865Z,3.70
2022-11-13T05:27:28.609Z,3.23
2022-11-13T05:29:56.364Z,1.60
2022-11-13T05:32:24.140Z,1.77
2022-11-13T05:34:53.254Z,2.63
2022-11-13T05:37:21.024Z,1.80
2022-11-13T05:39:48.802Z,1.63
2022-11-13T05:42:16.542Z,1.43
2022-11-13T05:44:44.312Z,2.33
2022-11-13T05:47:12.053Z,1.67
2022-11-13T05:49:39.835Z,1.50
2022-11-13T05:52:08.977Z,2.00
2022-11-13T05:54:37.008Z,1.80
2022-11-13T05:57:04.907Z,2.03
2022-11-13T05:59:32.736Z,1.80
2022-11-13T06:02:00.513Z,1.50
2022-11-13T06:04:28.310Z,2.37
2022-11-13T06:06:56.100Z,1.53
2022-11-13T06:09:25.288Z,1.43
2022-11-13T06:11:53.062Z,1.67
2022-11-13T06:14:20.761Z,1.80
2022-11-13T06:16:48.548Z,1.57
2022-11-13T06:19:16.404Z,1.83
2022-11-13T06:21:44.476Z,1.83
2022-11-13T06:24:13.745Z,3.67
2022-11-13T06:26:42.920Z,2.93
2022-11-13T06:29:12.910Z,1.50
2022-11-13T06:31:40.875Z,2.17
2022-11-13T06:34:08.810Z,1.47
2022-11-13T06:36:37.956Z,1.40
2022-11-13T06:39:08.509Z,1.40
2022-11-13T06:41:36.361Z,1.90
2022-11-13T06:44:05.800Z,1.10
2022-11-13T06:46:33.597Z,1.20
2022-11-13T06:49:01.416Z,1.53
2022-11-13T06:51:31.087Z,1.30
2022-11-13T06:53:59.051Z,3.70
2022-11-13T06:56:27.223Z,0.97
2022-11-13T06:58:55.817Z,1.10
2022-11-13T07:01:26.159Z,0.93
2022-11-13T07:03:54.084Z,1.50
2022-11-13T07:06:24.106Z,1.20
2022-11-13T07:08:52.557Z,3.00
2022-11-13T07:11:21.948Z,0.83
2022-11-13T07:13:50.595Z,1.10
2022-11-13T07:16:18.925Z,1.00
2022-11-13T07:18:52.333Z,0.83
2022-11-13T07:21:20.789Z,1.80
2022-11-13T07:23:49.067Z,0.60
2022-11-13T07:26:17.153Z,1.27
2022-11-13T07:28:44.943Z,1.00
2022-11-13T07:31:14.394Z,0.67
2022-11-13T07:33:43.426Z,0.83
2022-11-13T07:36:12.585Z,0.73
2022-11-13T07:38:40.371Z,0.97
2022-11-13T07:41:08.646Z,1.00
2022-11-13T07:43:36.447Z,0.80
2022-11-13T07:46:04.275Z,0.80
2022-11-13T07:48:32.425Z,0.63
2022-11-13T07:51:02.289Z,1.70
2022-11-13T07:53:32.062Z,0.50
2022-11-13T07:56:02.608Z,0.70
2022-11-13T07:58:31.254Z,0.60
2022-11-13T08:01:04.238Z,0.70
2022-11-13T08:03:32.865Z,1.10
2022-11-13T08:06:05.494Z,1.53
2022-11-13T08:08:35.683Z,1.53
2022-11-13T08:11:07.247Z,1.77
2022-11-13T08:13:35.509Z,1.80
2022-11-13T08:16:04.079Z,1.20
2022-11-13T08:18:32.897Z,1.53
2022-11-13T08:21:03.649Z,2.37
2022-11-13T08:23:31.739Z,4.13
2022-11-13T08:26:05.447Z,6.93
2022-11-13T08:28:33.705Z,5.30
2022-11-13T08:31:01.964Z,4.60
2022-11-13T08:33:30.063Z,4.33
2022-11-13T08:35:59.640Z,2.77
2022-11-13T08:38:28.637Z,2.67
2022-11-13T08:41:03.218Z,2.93
2022-11-13T08:43:35.132Z,1.70
2022-11-13T08:46:03.815Z,2.87
2022-11-13T08:48:31.904Z,2.40
2022-11-13T08:50:59.930Z,3.23
2022-11-13T08:53:27.864Z,4.50
2022-11-13T08:55:55.708Z,3.30
2022-11-13T08:58:24.923Z,3.77
2022-11-13T09:00:52.687Z,2.70
2022-11-13T09:03:20.517Z,3.60
2022-11-13T09:05:50.648Z,2.90
2022-11-13T09:08:18.376Z,5.50
2022-11-13T09:10:46.233Z,4.03
2022-11-13T09:13:14.014Z,2.90
2022-11-13T09:15:43.097Z,2.50
2022-11-13T09:18:11.658Z,3.60
2022-11-13T09:20:39.382Z,3.30
2022-11-13T09:23:09.163Z,4.17
2022-11-13T09:25:38.433Z,2.90
2022-11-13T09:28:07.021Z,2.63
2022-11-13T09:30:34.996Z,2.67
2022-11-13T09:33:04.547Z,2.30
2022-11-13T09:35:36.757Z,2.87
2022-11-13T09:38:11.652Z,2.00
2022-11-13T09:40:44.813Z,2.03
2022-11-13T09:43:24.507Z,2.17
2022-11-13T09:45:55.688Z,2.43
2022-11-13T09:48:32.885Z,2.43
2022-11-13T09:51:04.514Z,2.60
2022-11-13T09:53:38.587Z,2.53
2022-11-13T09:56:28.744Z,3.53
2022-11-13T09:59:04.396Z,3.13
2022-11-13T10:01:48.974Z,2.80
2022-11-13T10:04:25.844Z,2.57
2022-11-13T10:07:04.897Z,3.57
2022-11-13T10:09:41.812Z,5.30
2022-11-13T10:12:13.790Z,3.30
2022-11-13T10:14:45.963Z,2.70
2022-11-13T10:17:17.665Z,3.50
2022-11-13T10:19:56.875Z,2.20
2022-11-13T10:22:33.439Z,2.70
2022-11-13T10:25:10.448Z,2.50
2022-11-13T10:27:38.787Z,2.60
2022-11-13T10:30:13.910Z,3.13
2022-11-13T10:32:41.699Z,3.00
2022-11-13T10:35:38.147Z,2.40
2022-11-13T10:38:08.935Z,2.60
2022-11-13T10:40:38.659Z,4.40
2022-11-13T10:43:08.301Z,3.23
2022-11-13T10:45:36.095Z,4.70
2022-11-13T10:48:05.150Z,4.47
2022-11-13T10:50:35.507Z,3.63
2022-11-13T10:53:03.395Z,2.50
2022-11-13T10:55:38.801Z,3.60
2022-11-13T10:58:14.851Z,2.70
2022-11-13T11:00:47.306Z,2.53
2022-11-13T11:03:17.047Z,2.53
2022-11-13T11:05:58.156Z,3.07
2022-11-13T11:08:31.781Z,2.47
2022-11-13T11:11:19.225Z,2.40
2022-11-13T11:13:47.442Z,2.30
2022-11-13T11:16:21.222Z,3.40
2022-11-13T11:18:54.380Z,4.13
2022-11-13T11:21:27.561Z,2.73
2022-11-13T11:24:03.957Z,2.93
2022-11-13T11:26:36.097Z,2.67
2022-11-13T11:29:14.207Z,2.40
2022-11-13T11:31:48.298Z,2.37
2022-11-13T11:34:21.457Z,3.27
2022-11-13T11:37:06.765Z,2.77
2022-11-13T11:39:39.240Z,2.53
2022-11-13T11:42:16.417Z,2.77
2022-11-13T11:44:55.781Z,2.50
2022-11-13T11:47:23.714Z,2.73
2022-11-13T11:49:51.657Z,2.77
2022-11-13T11:52:33.951Z,3.03
2022-11-13T11:55:15.512Z,2.57
2022-11-13T11:57:51.746Z,2.53
2022-11-13T12:00:21.161Z,2.60
2022-11-13T12:03:34.348Z,3.17
2022-11-13T12:06:11.999Z,2.40
2022-11-13T12:08:49.108Z,2.33
2022-11-13T12:11:25.584Z,4.13
2022-11-13T12:14:03.487Z,3.17
2022-11-13T12:16:38.887Z,2.70
2022-11-13T12:19:12.610Z,2.97
2022-11-13T12:21:49.486Z,3.07
2022-11-13T12:24:42.702Z,3.87
2022-11-13T12:27:22.497Z,5.60
2022-11-13T12:30:03.088Z,3.63
2022-11-13T12:32:43.540Z,3.37
2022-11-13T12:35:14.859Z,3.47
2022-11-13T12:37:49.136Z,6.07
2022-11-13T12:40:27.565Z,4.50
2022-11-13T12:43:08.295Z,4.40
2022-11-13T12:45:50.309Z,5.20
2022-11-13T12:48:33.637Z,8.40
2022-11-13T12:51:03.598Z,3.20
2022-11-13T12:53:34.843Z,3.03
2022-11-13T12:56:04.655Z,3.83
2022-11-13T12:58:33.736Z,3.30
2022-11-13T13:01:07.306Z,4.83
2022-11-13T13:03:50.709Z,2.93
2022-11-13T13:06:35.767Z,3.90
2022-11-13T13:09:28.315Z,3.83
2022-11-13T13:12:05.485Z,3.10
2022-11-13T13:15:02.534Z,3.80
2022-11-13T13:17:30.516Z,3.60
2022-11-13T13:20:00.190Z,4.10
2022-11-13T13:22:30.193Z,3.47
2022-11-13T13:25:03.661Z,2.97
2022-11-13T13:27:38.490Z,2.73
2022-11-13T13:30:21.420Z,4.57
2022-11-13T13:33:00.104Z,4.43
2022-11-13T13:35:33.838Z,3.07
2022-11-13T13:38:10.189Z,2.93
2022-11-13T13:40:53.775Z,3.80
2022-11-13T13:43:38.431Z,10.90
2022-11-13T13:46:13.833Z,2.50
2022-11-13T13:48:44.347Z,4.87
2022-11-13T13:51:20.902Z,2.50
2022-11-13T13:53:50.158Z,4.40
2022-11-13T13:56:18.706Z,3.37
2022-11-13T13:58:48.235Z,3.73
2022-11-13T14:01:26.480Z,2.80
2022-11-13T14:04:05.719Z,2.43
2022-11-13T14:06:34.182Z,2.93
2022-11-13T14:09:09.800Z,2.40
2022-11-13T14:11:37.535Z,2.50
2022-11-13T14:14:10.921Z,2.90
2022-11-13T14:16:48.690Z,2.67
2022-11-13T14:19:16.432Z,2.47
2022-11-13T14:21:45.448Z,2.20
2022-11-13T14:24:20.523Z,3.50
2022-11-13T14:26:48.892Z,3.10
2022-11-13T14:29:33.711Z,2.40
2022-11-13T14:32:06.642Z,2.80
2022-11-13T14:34:35.406Z,3.13
2022-11-13T14:37:17.974Z,2.43
2022-11-13T14:39:47.756Z,3.53
2022-11-13T14:42:19.466Z,2.50
2022-11-13T14:44:49.342Z,4.20
2022-11-13T14:47:26.087Z,3.07
2022-11-13T14:49:54.237Z,3.37
2022-11-13T14:52:26.671Z,2.57
2022-11-13T14:55:21.522Z,2.80
2022-11-13T14:57:49.823Z,3.63
2022-11-13T15:00:20.747Z,2.40
2022-11-13T15:02:48.508Z,3.33
2022-11-13T15:05:16.455Z,2.53
2022-11-13T15:07:46.719Z,3.97
2022-11-13T15:10:17.455Z,3.73
2022-11-13T15:12:45.295Z,3.20
2022-11-13T15:15:16.283Z,2.70
2022-11-13T15:17:46.277Z,5.17
2022-11-13T15:20:18.245Z,3.43
2022-11-13T15:22:46.091Z,2.30
2022-11-13T15:25:15.703Z,7.03
2022-11-13T15:27:43.878Z,3.27
2022-11-13T15:30:13.003Z,3.50
2022-11-13T15:32:41.014Z,2.83
2022-11-13T15:35:14.921Z,3.83
2022-11-13T15:37:42.746Z,3.60
2022-11-13T15:40:17.529Z,4.30
2022-11-13T15:42:46.590Z,2.60
2022-11-13T15:45:16.836Z,2.47
2022-11-13T15:47:44.812Z,3.30
2022-11-13T15:50:15.891Z,3.30
2022-11-13T15:52:47.097Z,5.47
2022-11-13T15:55:21.985Z,4.17
2022-11-13T15:57:50.480Z,2.87
2022-11-13T16:00:24.849Z,4.33
2022-11-13T16:02:55.561Z,3.97
2022-11-13T16:05:26.533Z,3.13
2022-11-13T16:07:54.639Z,4.23
2022-11-13T16:10:24.757Z,4.17
2022-11-13T16:12:52.751Z,3.83
2022-11-13T16:15:21.361Z,4.90
2022-11-13T16:17:52.858Z,4.27
2022-11-13T16:20:20.755Z,3.57
2022-11-13T16:22:50.095Z,3.50
2022-11-13T16:25:19.577Z,3.97
2022-11-13T16:27:47.891Z,4.90
2022-11-13T16:30:17.099Z,4.70
2022-11-13T16:32:44.894Z,4.60
2022-11-13T16:35:16.342Z,5.20
2022-11-13T16:37:44.632Z,5.00
2022-11-13T16:40:20.898Z,7.07
2022-11-13T16:42:49.023Z,5.40
2022-11-13T16:45:17.010Z,6.50
2022-11-13T16:47:44.938Z,6.53
2022-11-13T16:50:15.716Z,9.07
2022-11-13T16:52:43.566Z,10.77
2022-11-13T16:55:11.429Z,13.93
2022-11-13T16:57:41.189Z,13.90
2022-11-13T17:00:13.389Z,11.17
2022-11-13T17:02:41.793Z,12.97
2022-11-13T17:05:13.653Z,11.83
2022-11-13T17:07:41.485Z,12.13
2022-11-13T17:13:02.392Z,18.97
2022-11-13T17:15:30.634Z,14.00
2022-11-13T17:17:59.231Z,11.07
2022-11-13T17:20:27.709Z,11.07
2022-11-13T17:22:55.964Z,9.93
2022-11-13T17:25:26.409Z,10.10
2022-11-13T17:27:54.289Z,9.83
2022-11-13T17:30:23.789Z,7.60
2022-11-13T17:32:51.567Z,8.77
2022-11-13T17:35:19.326Z,9.87
2022-11-13T17:37:47.088Z,8.40
2022-11-13T17:40:14.889Z,9.07
2022-11-13T17:42:44.826Z,10.43
2022-11-13T17:45:12.568Z,6.80
2022-11-13T17:47:41.689Z,9.37
2022-11-13T17:50:09.899Z,6.13
2022-11-13T17:52:37.725Z,6.47
2022-11-13T17:55:12.744Z,7.17
2022-11-13T17:57:43.367Z,8.83
2022-11-13T18:00:13.917Z,7.97
2022-11-13T18:02:43.163Z,7.47
2022-11-13T18:05:10.920Z,6.77
2022-11-13T18:07:39.997Z,8.27
2022-11-13T18:10:09.179Z,8.90
2022-11-13T18:12:37.329Z,8.97
2022-11-13T18:15:05.675Z,7.67
2022-11-13T18:17:33.895Z,9.40
2022-11-13T18:20:03.288Z,11.80
2022-11-13T18:22:31.478Z,12.27
2022-11-13T18:24:59.245Z,13.97
2022-11-13T18:27:27.114Z,9.93
2022-11-13T18:29:55.127Z,9.77
2022-11-13T18:32:22.887Z,14.03
2022-11-13T18:34:52.625Z,21.80
2022-11-13T18:37:21.980Z,17.67
2022-11-13T18:39:50.185Z,10.67
2022-11-13T18:42:17.938Z,7.50
2022-11-13T18:44:45.672Z,8.73
2022-11-13T18:47:13.453Z,6.07
2022-11-13T18:49:41.217Z,6.53
2022-11-13T18:52:09.182Z,5.53
2022-11-13T18:54:38.285Z,5.93
2022-11-13T18:57:06.059Z,6.17
2022-11-13T18:59:34.224Z,11.70
2022-11-13T19:02:02.390Z,7.53
2022-11-13T19:04:30.265Z,6.73
2022-11-13T19:06:58.526Z,6.53
2022-11-13T19:09:26.419Z,6.67
2022-11-13T19:11:56.449Z,8.03
2022-11-13T19:14:24.202Z,11.40
2022-11-13T19:16:52.110Z,13.70
2022-11-13T19:19:21.568Z,10.47
2022-11-13T19:21:49.616Z,10.93
2022-11-13T19:24:17.759Z,10.03
2022-11-13T19:26:46.469Z,11.53
2022-11-13T19:29:15.644Z,13.07
2022-11-13T19:31:45.208Z,20.47
2022-11-13T19:34:13.346Z,22.77
2022-11-13T19:36:41.427Z,27.83
2022-11-13T19:39:09.647Z,30.70
2022-11-13T19:41:37.450Z,24.70
2022-11-13T19:44:06.421Z,27.63
2022-11-13T19:46:39.539Z,34.43
2022-11-13T19:49:07.960Z,27.57
2022-11-13T19:51:35.806Z,15.37
2022-11-13T19:54:03.805Z,7.47
2022-11-13T19:56:31.588Z,6.23
2022-11-13T19:58:59.353Z,10.20
2022-11-13T20:01:29.467Z,6.83
2022-11-13T20:04:00.884Z,7.30
2022-11-13T20:06:30.262Z,5.73
2022-11-13T20:08:59.567Z,5.23
2022-11-13T20:11:27.773Z,4.50
2022-11-13T20:13:58.198Z,4.27
2022-11-13T20:16:26.059Z,4.67
2022-11-13T20:18:59.156Z,6.37
2022-11-13T20:21:31.287Z,5.70
2022-11-13T20:24:00.527Z,5.07
2022-11-13T20:26:29.659Z,5.17
2022-11-13T20:28:57.603Z,4.47
2022-11-13T20:31:27.607Z,4.77
2022-11-13T20:33:56.844Z,4.10
2022-11-13T20:36:26.300Z,3.50
2022-11-13T20:38:56.809Z,4.13
2022-11-13T20:41:25.422Z,3.93
2022-11-13T20:43:55.607Z,3.90
2022-11-13T20:46:23.549Z,5.67
2022-11-13T20:48:51.627Z,4.90
2022-11-13T20:51:21.148Z,4.57
2022-11-13T20:53:50.890Z,5.10
2022-11-13T20:56:19.648Z,6.60
2022-11-13T20:58:47.695Z,6.00
2022-11-13T21:01:17.185Z,5.27
2022-11-13T21:03:46.144Z,4.93
2022-11-13T21:06:16.201Z,5.33
2022-11-13T21:08:44.676Z,6.10
2022-11-13T21:11:18.786Z,5.93
2022-11-13T21:13:48.875Z,5.33
2022-11-13T21:16:18.029Z,4.73
2022-11-13T21:18:46.246Z,3.90
2022-11-13T21:21:16.944Z,4.10
2022-11-13T21:23:44.687Z,3.37
2022-11-13T21:26:14.321Z,4.00
2022-11-13T21:28:44.053Z,3.57
2022-11-13T21:31:20.569Z,4.10
2022-11-13T21:33:49.200Z,3.07
2022-11-13T21:36:20.862Z,3.50
2022-11-13T21:38:52.439Z,3.13
2022-11-13T21:41:23.722Z,2.87
2022-11-13T21:43:56.782Z,3.37
2022-11-13T21:46:27.036Z,3.53
2022-11-13T21:48:59.873Z,2.97
2022-11-13T21:51:28.023Z,3.10
2022-11-13T21:53:55.929Z,2.53
2022-11-13T21:56:26.199Z,2.30
2022-11-13T21:58:55.622Z,2.47
2022-11-13T22:01:24.091Z,4.27
2022-11-13T22:03:52.361Z,2.13
2022-11-13T22:06:22.434Z,2.00
2022-11-13T22:08:56.537Z,1.70
2022-11-13T22:11:26.923Z,2.37
2022-11-13T22:13:55.381Z,2.43
2022-11-13T22:16:24.001Z,1.77
2022-11-13T22:18:54.669Z,2.13
2022-11-13T22:21:23.257Z,3.70
2022-11-13T22:23:51.445Z,1.90
2022-11-13T22:26:20.052Z,20.13
2022-11-13T22:28:50.023Z,11.03
2022-11-13T22:31:20.705Z,13.47
2022-11-13T22:33:52.496Z,6.33
2022-11-13T22:36:24.042Z,6.33
2022-11-13T22:38:51.829Z,4.50
2022-11-13T22:41:23.626Z,3.60
2022-11-13T22:43:54.894Z,3.10
2022-11-13T22:46:24.928Z,4.70
2022-11-13T22:48:54.393Z,3.30
2022-11-13T22:51:24.261Z,1.83
2022-11-13T22:53:54.105Z,1.93
2022-11-13T22:56:26.117Z,2.80
2022-11-13T22:58:56.756Z,1.60
2022-11-13T23:01:26.310Z,2.03
2022-11-13T23:03:55.126Z,1.33
2022-11-13T23:06:24.940Z,2.10
2022-11-13T23:08:52.863Z,1.27
2022-11-13T23:11:22.520Z,1.70
2022-11-13T23:13:52.127Z,1.80
2022-11-13T23:16:22.559Z,1.77
2022-11-13T23:18:51.201Z,3.03
2022-11-13T23:21:19.313Z,1.77
2022-11-13T23:23:47.243Z,1.90
2022-11-13T23:26:16.281Z,1.40
2022-11-13T23:28:44.233Z,2.10
2022-11-13T23:31:12.589Z,1.77
2022-11-13T23:33:41.699Z,2.40
2022-11-13T23:36:11.375Z,1.67
2022-11-13T23:38:39.261Z,1.40
2022-11-13T23:41:07.478Z,3.23
2022-11-13T23:44:07.237Z,1.67
2022-11-13T23:46:23.010Z,1.40
2022-11-13T23:48:52.144Z,2.03
2022-11-13T23:51:19.901Z,1.90
2022-11-13T23:53:47.715Z,2.17
2022-11-13T23:56:15.474Z,1.40
2022-11-13T23:58:43.247Z,1.50
